sensor_id;sensor_type;location;lat;lon;timestamp;P1;durP1;ratioP1;P2;durP2;ratioP2
30888;SDS011;51092;50.874;7.024;2023-04-24T00:00:15;1.63;;;1.00;;
30888;SDS011;51092;50.874;7.024;2023-04-24T00:01:20;1.13;;;0.80;;
30888;SDS011;51092;50.874;7.024;2023-04-24T00:02:21;3.08;;;1.10;;
30888;SDS011;51092;50.874;7.024;2023-04-24T00:03:24;1.65;;;1.13;;
30888;SDS011;51092;50.874;7.024;2023-04-24T00:04:26;0.73;;;0.70;;
30888;SDS011;51092;50.874;7.024;2023-04-24T00:05:29;2.05;;;0.70;;
30888;SDS011;51092;50.874;7.024;2023-04-24T00:06:30;1.10;;;1.00;;
30888;SDS011;51092;50.874;7.024;2023-04-24T00:07:34;2.92;;;1.00;;
30888;SDS011;51092;50.874;7.024;2023-04-24T00:08:36;2.80;;;0.95;;
30888;SDS011;51092;50.874;7.024;2023-04-24T00:09:38;0.70;;;0.70;;
30888;SDS011;51092;50.874;7.024;2023-04-24T00:10:40;0.90;;;0.80;;
30888;SDS011;51092;50.874;7.024;2023-04-24T00:11:43;1.02;;;0.70;;
30888;SDS011;51092;50.874;7.024;2023-04-24T00:12:44;1.52;;;0.98;;
30888;SDS011;51092;50.874;7.024;2023-04-24T00:13:47;1.15;;;0.90;;
30888;SDS011;51092;50.874;7.024;2023-04-24T00:14:48;1.65;;;1.02;;
30888;SDS011;51092;50.874;7.024;2023-04-24T00:15:51;1.42;;;1.00;;
30888;SDS011;51092;50.874;7.024;2023-04-24T00:16:54;1.10;;;1.00;;
30888;SDS011;51092;50.874;7.024;2023-04-24T00:17:56;1.13;;;0.75;;
30888;SDS011;51092;50.874;7.024;2023-04-24T00:18:57;0.85;;;0.70;;
30888;SDS011;51092;50.874;7.024;2023-04-24T00:20:01;1.23;;;1.00;;
30888;SDS011;51092;50.874;7.024;2023-04-24T00:21:05;2.30;;;0.80;;
30888;SDS011;51092;50.874;7.024;2023-04-24T00:22:08;2.00;;;0.75;;
30888;SDS011;51092;50.874;7.024;2023-04-24T00:23:09;1.55;;;0.80;;
30888;SDS011;51092;50.874;7.024;2023-04-24T00:24:11;1.58;;;1.13;;
30888;SDS011;51092;50.874;7.024;2023-04-24T00:25:13;2.50;;;1.15;;
30888;SDS011;51092;50.874;7.024;2023-04-24T00:26:15;0.73;;;0.73;;
30888;SDS011;51092;50.874;7.024;2023-04-24T00:27:17;1.65;;;0.80;;
30888;SDS011;51092;50.874;7.024;2023-04-24T00:28:19;1.83;;;0.90;;
30888;SDS011;51092;50.874;7.024;2023-04-24T00:29:21;2.15;;;0.80;;
30888;SDS011;51092;50.874;7.024;2023-04-24T00:30:23;1.00;;;0.90;;
30888;SDS011;51092;50.874;7.024;2023-04-24T00:31:24;3.75;;;1.40;;
30888;SDS011;51092;50.874;7.024;2023-04-24T00:32:28;0.80;;;0.73;;
30888;SDS011;51092;50.874;7.024;2023-04-24T00:33:30;0.75;;;0.75;;
30888;SDS011;51092;50.874;7.024;2023-04-24T00:34:33;2.60;;;0.77;;
30888;SDS011;51092;50.874;7.024;2023-04-24T00:35:34;1.15;;;0.80;;
30888;SDS011;51092;50.874;7.024;2023-04-24T00:36:36;1.45;;;0.80;;
30888;SDS011;51092;50.874;7.024;2023-04-24T00:37:38;0.77;;;0.77;;
30888;SDS011;51092;50.874;7.024;2023-04-24T00:38:41;0.85;;;0.68;;
30888;SDS011;51092;50.874;7.024;2023-04-24T00:39:42;1.27;;;0.80;;
30888;SDS011;51092;50.874;7.024;2023-04-24T00:40:44;2.05;;;1.00;;
30888;SDS011;51092;50.874;7.024;2023-04-24T00:41:46;2.88;;;0.80;;
30888;SDS011;51092;50.874;7.024;2023-04-24T00:42:49;1.05;;;0.90;;
30888;SDS011;51092;50.874;7.024;2023-04-24T00:43:51;1.25;;;0.93;;
30888;SDS011;51092;50.874;7.024;2023-04-24T00:44:54;1.20;;;0.80;;
30888;SDS011;51092;50.874;7.024;2023-04-24T00:45:57;0.80;;;0.80;;
30888;SDS011;51092;50.874;7.024;2023-04-24T00:47:00;2.15;;;0.80;;
30888;SDS011;51092;50.874;7.024;2023-04-24T00:48:04;1.00;;;0.90;;
30888;SDS011;51092;50.874;7.024;2023-04-24T00:49:06;3.72;;;0.90;;
30888;SDS011;51092;50.874;7.024;2023-04-24T00:50:08;0.73;;;0.73;;
30888;SDS011;51092;50.874;7.024;2023-04-24T00:51:10;1.70;;;0.73;;
30888;SDS011;51092;50.874;7.024;2023-04-24T00:52:13;0.57;;;0.57;;
30888;SDS011;51092;50.874;7.024;2023-04-24T00:53:18;1.25;;;0.80;;
30888;SDS011;51092;50.874;7.024;2023-04-24T00:54:21;0.73;;;0.68;;
30888;SDS011;51092;50.874;7.024;2023-04-24T00:55:23;0.60;;;0.60;;
30888;SDS011;51092;50.874;7.024;2023-04-24T00:56:26;3.60;;;0.90;;
30888;SDS011;51092;50.874;7.024;2023-04-24T00:57:28;2.20;;;1.02;;
30888;SDS011;51092;50.874;7.024;2023-04-24T00:58:31;1.08;;;0.98;;
30888;SDS011;51092;50.874;7.024;2023-04-24T00:59:33;1.30;;;1.13;;
30888;SDS011;51092;50.874;7.024;2023-04-24T01:00:36;0.95;;;0.63;;
30888;SDS011;51092;50.874;7.024;2023-04-24T01:01:38;1.40;;;1.00;;
30888;SDS011;51092;50.874;7.024;2023-04-24T01:02:42;3.53;;;0.80;;
30888;SDS011;51092;50.874;7.024;2023-04-24T01:03:47;1.75;;;0.88;;
30888;SDS011;51092;50.874;7.024;2023-04-24T01:04:52;2.10;;;0.88;;
30888;SDS011;51092;50.874;7.024;2023-04-24T01:05:54;1.00;;;0.90;;
30888;SDS011;51092;50.874;7.024;2023-04-24T01:06:56;3.92;;;1.25;;
30888;SDS011;51092;50.874;7.024;2023-04-24T01:07:58;0.95;;;0.80;;
30888;SDS011;51092;50.874;7.024;2023-04-24T01:09:01;0.80;;;0.80;;
30888;SDS011;51092;50.874;7.024;2023-04-24T01:10:03;3.17;;;1.05;;
30888;SDS011;51092;50.874;7.024;2023-04-24T01:11:05;1.70;;;1.10;;
30888;SDS011;51092;50.874;7.024;2023-04-24T01:12:07;1.50;;;1.02;;
30888;SDS011;51092;50.874;7.024;2023-04-24T01:13:09;2.28;;;0.80;;
30888;SDS011;51092;50.874;7.024;2023-04-24T01:14:11;1.83;;;1.02;;
30888;SDS011;51092;50.874;7.024;2023-04-24T01:15:13;1.38;;;0.90;;
30888;SDS011;51092;50.874;7.024;2023-04-24T01:16:15;1.55;;;0.98;;
30888;SDS011;51092;50.874;7.024;2023-04-24T01:17:18;3.63;;;1.25;;
30888;SDS011;51092;50.874;7.024;2023-04-24T01:18:19;2.53;;;1.10;;
30888;SDS011;51092;50.874;7.024;2023-04-24T01:19:24;2.08;;;0.90;;
30888;SDS011;51092;50.874;7.024;2023-04-24T01:20:25;3.00;;;1.40;;
30888;SDS011;51092;50.874;7.024;2023-04-24T01:21:28;1.40;;;1.23;;
30888;SDS011;51092;50.874;7.024;2023-04-24T01:22:32;1.77;;;1.27;;
30888;SDS011;51092;50.874;7.024;2023-04-24T01:23:35;3.72;;;2.00;;
30888;SDS011;51092;50.874;7.024;2023-04-24T01:24:36;5.55;;;1.55;;
30888;SDS011;51092;50.874;7.024;2023-04-24T01:25:39;2.80;;;1.38;;
30888;SDS011;51092;50.874;7.024;2023-04-24T01:26:41;2.55;;;1.70;;
30888;SDS011;51092;50.874;7.024;2023-04-24T01:27:43;2.53;;;1.17;;
30888;SDS011;51092;50.874;7.024;2023-04-24T01:28:45;1.52;;;1.42;;
30888;SDS011;51092;50.874;7.024;2023-04-24T01:29:48;1.77;;;1.10;;
30888;SDS011;51092;50.874;7.024;2023-04-24T01:30:50;1.23;;;1.13;;
30888;SDS011;51092;50.874;7.024;2023-04-24T01:31:53;2.83;;;1.40;;
30888;SDS011;51092;50.874;7.024;2023-04-24T01:32:55;3.55;;;1.50;;
30888;SDS011;51092;50.874;7.024;2023-04-24T01:33:58;3.95;;;1.52;;
30888;SDS011;51092;50.874;7.024;2023-04-24T01:35:00;4.28;;;1.33;;
30888;SDS011;51092;50.874;7.024;2023-04-24T01:36:03;1.75;;;1.48;;
30888;SDS011;51092;50.874;7.024;2023-04-24T01:37:05;3.92;;;1.25;;
30888;SDS011;51092;50.874;7.024;2023-04-24T01:38:09;2.97;;;1.42;;
30888;SDS011;51092;50.874;7.024;2023-04-24T01:39:11;2.38;;;1.60;;
30888;SDS011;51092;50.874;7.024;2023-04-24T01:40:14;1.48;;;1.38;;
30888;SDS011;51092;50.874;7.024;2023-04-24T01:41:15;1.52;;;1.30;;
30888;SDS011;51092;50.874;7.024;2023-04-24T01:42:18;2.42;;;1.30;;
30888;SDS011;51092;50.874;7.024;2023-04-24T01:43:19;3.28;;;1.50;;
30888;SDS011;51092;50.874;7.024;2023-04-24T01:44:23;4.05;;;1.52;;
30888;SDS011;51092;50.874;7.024;2023-04-24T01:45:24;2.80;;;1.70;;
30888;SDS011;51092;50.874;7.024;2023-04-24T01:46:27;3.30;;;1.95;;
30888;SDS011;51092;50.874;7.024;2023-04-24T01:47:29;2.53;;;2.00;;
30888;SDS011;51092;50.874;7.024;2023-04-24T01:48:32;2.78;;;1.98;;
30888;SDS011;51092;50.874;7.024;2023-04-24T01:49:34;3.05;;;2.75;;
30888;SDS011;51092;50.874;7.024;2023-04-24T01:50:39;5.82;;;2.38;;
30888;SDS011;51092;50.874;7.024;2023-04-24T01:51:40;4.35;;;2.50;;
30888;SDS011;51092;50.874;7.024;2023-04-24T01:52:43;2.55;;;1.90;;
30888;SDS011;51092;50.874;7.024;2023-04-24T01:53:46;3.15;;;2.33;;
30888;SDS011;51092;50.874;7.024;2023-04-24T01:54:48;4.70;;;2.10;;
30888;SDS011;51092;50.874;7.024;2023-04-24T01:55:50;2.95;;;1.90;;
30888;SDS011;51092;50.874;7.024;2023-04-24T01:56:52;3.33;;;2.75;;
30888;SDS011;51092;50.874;7.024;2023-04-24T01:57:55;4.05;;;2.30;;
30888;SDS011;51092;50.874;7.024;2023-04-24T01:58:58;2.47;;;2.28;;
30888;SDS011;51092;50.874;7.024;2023-04-24T02:00:01;3.08;;;2.47;;
30888;SDS011;51092;50.874;7.024;2023-04-24T02:01:07;3.10;;;2.80;;
30888;SDS011;51092;50.874;7.024;2023-04-24T02:02:09;3.85;;;2.42;;
30888;SDS011;51092;50.874;7.024;2023-04-24T02:03:11;3.60;;;2.05;;
30888;SDS011;51092;50.874;7.024;2023-04-24T02:04:13;3.28;;;2.70;;
30888;SDS011;51092;50.874;7.024;2023-04-24T02:05:16;3.22;;;2.55;;
30888;SDS011;51092;50.874;7.024;2023-04-24T02:06:17;3.08;;;2.40;;
30888;SDS011;51092;50.874;7.024;2023-04-24T02:07:20;2.60;;;2.38;;
30888;SDS011;51092;50.874;7.024;2023-04-24T02:08:21;3.80;;;2.83;;
30888;SDS011;51092;50.874;7.024;2023-04-24T02:09:26;3.03;;;2.50;;
30888;SDS011;51092;50.874;7.024;2023-04-24T02:10:27;3.63;;;2.47;;
30888;SDS011;51092;50.874;7.024;2023-04-24T02:11:29;4.07;;;3.08;;
30888;SDS011;51092;50.874;7.024;2023-04-24T02:12:31;4.00;;;2.60;;
30888;SDS011;51092;50.874;7.024;2023-04-24T02:13:34;3.35;;;3.05;;
30888;SDS011;51092;50.874;7.024;2023-04-24T02:14:35;6.65;;;3.15;;
30888;SDS011;51092;50.874;7.024;2023-04-24T02:15:38;3.38;;;2.90;;
30888;SDS011;51092;50.874;7.024;2023-04-24T02:16:39;4.35;;;3.10;;
30888;SDS011;51092;50.874;7.024;2023-04-24T02:17:42;4.55;;;3.00;;
30888;SDS011;51092;50.874;7.024;2023-04-24T02:18:43;3.63;;;3.13;;
30888;SDS011;51092;50.874;7.024;2023-04-24T02:19:46;3.97;;;3.00;;
30888;SDS011;51092;50.874;7.024;2023-04-24T02:20:47;4.72;;;3.22;;
30888;SDS011;51092;50.874;7.024;2023-04-24T02:21:49;4.90;;;3.67;;
30888;SDS011;51092;50.874;7.024;2023-04-24T02:22:51;7.45;;;3.47;;
30888;SDS011;51092;50.874;7.024;2023-04-24T02:23:53;3.30;;;2.97;;
30888;SDS011;51092;50.874;7.024;2023-04-24T02:24:57;5.68;;;3.50;;
30888;SDS011;51092;50.874;7.024;2023-04-24T02:25:59;3.80;;;3.28;;
30888;SDS011;51092;50.874;7.024;2023-04-24T02:27:00;3.28;;;2.97;;
30888;SDS011;51092;50.874;7.024;2023-04-24T02:28:03;3.72;;;3.35;;
30888;SDS011;51092;50.874;7.024;2023-04-24T02:29:05;4.25;;;3.65;;
30888;SDS011;51092;50.874;7.024;2023-04-24T02:30:07;4.00;;;3.25;;
30888;SDS011;51092;50.874;7.024;2023-04-24T02:31:09;7.03;;;3.83;;
30888;SDS011;51092;50.874;7.024;2023-04-24T02:32:12;5.65;;;3.80;;
30888;SDS011;51092;50.874;7.024;2023-04-24T02:33:16;7.90;;;4.32;;
30888;SDS011;51092;50.874;7.024;2023-04-24T02:34:18;4.72;;;4.28;;
30888;SDS011;51092;50.874;7.024;2023-04-24T02:35:20;4.97;;;3.92;;
30888;SDS011;51092;50.874;7.024;2023-04-24T02:36:22;8.05;;;4.57;;
30888;SDS011;51092;50.874;7.024;2023-04-24T02:37:23;6.10;;;4.15;;
30888;SDS011;51092;50.874;7.024;2023-04-24T02:38:26;7.95;;;5.50;;
30888;SDS011;51092;50.874;7.024;2023-04-24T02:39:27;5.72;;;4.43;;
30888;SDS011;51092;50.874;7.024;2023-04-24T02:40:31;6.22;;;4.60;;
30888;SDS011;51092;50.874;7.024;2023-04-24T02:41:33;4.68;;;4.13;;
30888;SDS011;51092;50.874;7.024;2023-04-24T02:42:35;6.03;;;4.63;;
30888;SDS011;51092;50.874;7.024;2023-04-24T02:43:38;8.02;;;5.07;;
30888;SDS011;51092;50.874;7.024;2023-04-24T02:44:39;9.07;;;5.70;;
30888;SDS011;51092;50.874;7.024;2023-04-24T02:45:41;9.38;;;5.88;;
30888;SDS011;51092;50.874;7.024;2023-04-24T02:46:43;6.93;;;5.72;;
30888;SDS011;51092;50.874;7.024;2023-04-24T02:47:45;6.70;;;5.82;;
30888;SDS011;51092;50.874;7.024;2023-04-24T02:48:47;6.78;;;6.00;;
30888;SDS011;51092;50.874;7.024;2023-04-24T02:49:49;9.45;;;6.25;;
30888;SDS011;51092;50.874;7.024;2023-04-24T02:50:51;7.78;;;5.22;;
30888;SDS011;51092;50.874;7.024;2023-04-24T02:51:53;5.88;;;5.03;;
30888;SDS011;51092;50.874;7.024;2023-04-24T02:52:55;7.00;;;5.38;;
30888;SDS011;51092;50.874;7.024;2023-04-24T02:53:57;8.63;;;4.82;;
30888;SDS011;51092;50.874;7.024;2023-04-24T02:54:59;7.35;;;5.90;;
30888;SDS011;51092;50.874;7.024;2023-04-24T02:56:02;7.25;;;5.00;;
30888;SDS011;51092;50.874;7.024;2023-04-24T02:57:04;6.10;;;4.55;;
30888;SDS011;51092;50.874;7.024;2023-04-24T02:58:06;7.90;;;5.43;;
30888;SDS011;51092;50.874;7.024;2023-04-24T02:59:08;8.57;;;4.90;;
30888;SDS011;51092;50.874;7.024;2023-04-24T03:00:11;5.38;;;4.50;;
30888;SDS011;51092;50.874;7.024;2023-04-24T03:01:14;5.20;;;4.70;;
30888;SDS011;51092;50.874;7.024;2023-04-24T03:02:16;5.90;;;4.78;;
30888;SDS011;51092;50.874;7.024;2023-04-24T03:03:18;7.22;;;4.95;;
30888;SDS011;51092;50.874;7.024;2023-04-24T03:04:20;7.05;;;5.38;;
30888;SDS011;51092;50.874;7.024;2023-04-24T03:05:23;6.60;;;5.00;;
30888;SDS011;51092;50.874;7.024;2023-04-24T03:06:25;6.68;;;5.03;;
30888;SDS011;51092;50.874;7.024;2023-04-24T03:07:27;10.68;;;4.85;;
30888;SDS011;51092;50.874;7.024;2023-04-24T03:08:30;8.35;;;4.82;;
30888;SDS011;51092;50.874;7.024;2023-04-24T03:09:31;8.05;;;5.05;;
30888;SDS011;51092;50.874;7.024;2023-04-24T03:10:34;7.07;;;5.63;;
30888;SDS011;51092;50.874;7.024;2023-04-24T03:11:37;7.65;;;5.80;;
30888;SDS011;51092;50.874;7.024;2023-04-24T03:12:39;8.80;;;5.53;;
30888;SDS011;51092;50.874;7.024;2023-04-24T03:13:41;7.78;;;5.82;;
30888;SDS011;51092;50.874;7.024;2023-04-24T03:14:43;8.35;;;5.30;;
30888;SDS011;51092;50.874;7.024;2023-04-24T03:15:44;11.50;;;6.70;;
30888;SDS011;51092;50.874;7.024;2023-04-24T03:16:47;6.72;;;5.60;;
30888;SDS011;51092;50.874;7.024;2023-04-24T03:17:49;8.55;;;5.70;;
30888;SDS011;51092;50.874;7.024;2023-04-24T03:18:51;6.43;;;5.82;;
30888;SDS011;51092;50.874;7.024;2023-04-24T03:19:53;8.35;;;5.88;;
30888;SDS011;51092;50.874;7.024;2023-04-24T03:20:55;7.55;;;5.80;;
30888;SDS011;51092;50.874;7.024;2023-04-24T03:21:57;7.78;;;5.25;;
30888;SDS011;51092;50.874;7.024;2023-04-24T03:22:59;8.15;;;5.35;;
30888;SDS011;51092;50.874;7.024;2023-04-24T03:24:01;6.28;;;5.50;;
30888;SDS011;51092;50.874;7.024;2023-04-24T03:25:04;7.25;;;5.82;;
30888;SDS011;51092;50.874;7.024;2023-04-24T03:26:06;9.88;;;5.68;;
30888;SDS011;51092;50.874;7.024;2023-04-24T03:27:10;5.82;;;5.28;;
30888;SDS011;51092;50.874;7.024;2023-04-24T03:28:11;6.43;;;5.45;;
30888;SDS011;51092;50.874;7.024;2023-04-24T03:29:14;7.30;;;6.25;;
30888;SDS011;51092;50.874;7.024;2023-04-24T03:30:15;6.90;;;5.80;;
30888;SDS011;51092;50.874;7.024;2023-04-24T03:31:18;6.93;;;5.22;;
30888;SDS011;51092;50.874;7.024;2023-04-24T03:32:19;9.80;;;6.18;;
30888;SDS011;51092;50.874;7.024;2023-04-24T03:33:22;8.90;;;6.78;;
30888;SDS011;51092;50.874;7.024;2023-04-24T03:34:24;7.38;;;6.28;;
30888;SDS011;51092;50.874;7.024;2023-04-24T03:35:26;8.25;;;6.05;;
30888;SDS011;51092;50.874;7.024;2023-04-24T03:36:28;7.60;;;6.03;;
30888;SDS011;51092;50.874;7.024;2023-04-24T03:37:31;8.02;;;5.32;;
30888;SDS011;51092;50.874;7.024;2023-04-24T03:38:32;9.32;;;6.38;;
30888;SDS011;51092;50.874;7.024;2023-04-24T03:39:35;7.70;;;6.53;;
30888;SDS011;51092;50.874;7.024;2023-04-24T03:40:36;7.50;;;6.70;;
30888;SDS011;51092;50.874;7.024;2023-04-24T03:41:38;6.88;;;6.10;;
30888;SDS011;51092;50.874;7.024;2023-04-24T03:42:42;8.60;;;6.30;;
30888;SDS011;51092;50.874;7.024;2023-04-24T03:43:44;7.45;;;6.18;;
30888;SDS011;51092;50.874;7.024;2023-04-24T03:44:46;8.30;;;6.18;;
30888;SDS011;51092;50.874;7.024;2023-04-24T03:45:49;8.63;;;5.90;;
30888;SDS011;51092;50.874;7.024;2023-04-24T03:46:50;8.13;;;6.10;;
30888;SDS011;51092;50.874;7.024;2023-04-24T03:47:52;7.95;;;6.68;;
30888;SDS011;51092;50.874;7.024;2023-04-24T03:48:54;8.88;;;6.70;;
30888;SDS011;51092;50.874;7.024;2023-04-24T03:49:56;9.13;;;7.00;;
30888;SDS011;51092;50.874;7.024;2023-04-24T03:50:58;6.68;;;5.78;;
30888;SDS011;51092;50.874;7.024;2023-04-24T03:52:00;9.50;;;7.13;;
30888;SDS011;51092;50.874;7.024;2023-04-24T03:53:02;7.35;;;6.32;;
30888;SDS011;51092;50.874;7.024;2023-04-24T03:54:04;8.98;;;6.28;;
30888;SDS011;51092;50.874;7.024;2023-04-24T03:55:06;6.82;;;6.15;;
30888;SDS011;51092;50.874;7.024;2023-04-24T03:56:09;8.00;;;6.50;;
30888;SDS011;51092;50.874;7.024;2023-04-24T03:57:11;7.57;;;6.50;;
30888;SDS011;51092;50.874;7.024;2023-04-24T03:58:14;7.15;;;5.35;;
30888;SDS011;51092;50.874;7.024;2023-04-24T03:59:16;7.90;;;6.40;;
30888;SDS011;51092;50.874;7.024;2023-04-24T04:00:19;8.13;;;5.57;;
30888;SDS011;51092;50.874;7.024;2023-04-24T04:01:21;7.10;;;6.40;;
30888;SDS011;51092;50.874;7.024;2023-04-24T04:02:25;7.78;;;5.90;;
30888;SDS011;51092;50.874;7.024;2023-04-24T04:03:26;8.02;;;5.60;;
30888;SDS011;51092;50.874;7.024;2023-04-24T04:04:29;6.75;;;6.05;;
30888;SDS011;51092;50.874;7.024;2023-04-24T04:05:30;6.65;;;5.97;;
30888;SDS011;51092;50.874;7.024;2023-04-24T04:06:33;7.20;;;6.50;;
30888;SDS011;51092;50.874;7.024;2023-04-24T04:07:34;7.13;;;5.85;;
30888;SDS011;51092;50.874;7.024;2023-04-24T04:08:36;9.05;;;5.80;;
30888;SDS011;51092;50.874;7.024;2023-04-24T04:09:38;6.93;;;5.72;;
30888;SDS011;51092;50.874;7.024;2023-04-24T04:10:40;7.55;;;5.75;;
30888;SDS011;51092;50.874;7.024;2023-04-24T04:11:42;7.65;;;5.47;;
30888;SDS011;51092;50.874;7.024;2023-04-24T04:12:44;9.85;;;6.22;;
30888;SDS011;51092;50.874;7.024;2023-04-24T04:13:48;7.45;;;5.82;;
30888;SDS011;51092;50.874;7.024;2023-04-24T04:14:51;7.68;;;5.68;;
30888;SDS011;51092;50.874;7.024;2023-04-24T04:15:52;7.63;;;5.85;;
30888;SDS011;51092;50.874;7.024;2023-04-24T04:16:55;9.75;;;5.68;;
30888;SDS011;51092;50.874;7.024;2023-04-24T04:17:57;7.43;;;5.90;;
30888;SDS011;51092;50.874;7.024;2023-04-24T04:18:59;8.27;;;5.72;;
30888;SDS011;51092;50.874;7.024;2023-04-24T04:20:01;6.90;;;5.93;;
30888;SDS011;51092;50.874;7.024;2023-04-24T04:21:09;7.70;;;6.05;;
30888;SDS011;51092;50.874;7.024;2023-04-24T04:22:11;9.25;;;5.95;;
30888;SDS011;51092;50.874;7.024;2023-04-24T04:23:13;8.48;;;5.75;;
30888;SDS011;51092;50.874;7.024;2023-04-24T04:24:14;10.25;;;5.68;;
30888;SDS011;51092;50.874;7.024;2023-04-24T04:25:16;9.00;;;6.60;;
30888;SDS011;51092;50.874;7.024;2023-04-24T04:26:19;8.65;;;5.70;;
30888;SDS011;51092;50.874;7.024;2023-04-24T04:27:26;7.53;;;5.65;;
30888;SDS011;51092;50.874;7.024;2023-04-24T04:28:29;7.32;;;5.68;;
30888;SDS011;51092;50.874;7.024;2023-04-24T04:29:33;9.52;;;6.20;;
30888;SDS011;51092;50.874;7.024;2023-04-24T04:30:36;11.50;;;6.78;;
30888;SDS011;51092;50.874;7.024;2023-04-24T04:31:39;9.63;;;7.25;;
30888;SDS011;51092;50.874;7.024;2023-04-24T04:32:41;10.63;;;6.63;;
30888;SDS011;51092;50.874;7.024;2023-04-24T04:33:43;6.25;;;5.65;;
30888;SDS011;51092;50.874;7.024;2023-04-24T04:34:45;8.98;;;6.10;;
30888;SDS011;51092;50.874;7.024;2023-04-24T04:35:50;8.68;;;6.65;;
30888;SDS011;51092;50.874;7.024;2023-04-24T04:36:52;7.07;;;5.85;;
30888;SDS011;51092;50.874;7.024;2023-04-24T04:37:55;7.50;;;6.05;;
30888;SDS011;51092;50.874;7.024;2023-04-24T04:38:59;9.77;;;6.93;;
30888;SDS011;51092;50.874;7.024;2023-04-24T04:40:03;8.50;;;6.57;;
30888;SDS011;51092;50.874;7.024;2023-04-24T04:41:07;10.13;;;7.00;;
30888;SDS011;51092;50.874;7.024;2023-04-24T04:42:09;11.05;;;6.40;;
30888;SDS011;51092;50.874;7.024;2023-04-24T04:43:11;10.32;;;6.72;;
30888;SDS011;51092;50.874;7.024;2023-04-24T04:44:15;9.45;;;5.93;;
30888;SDS011;51092;50.874;7.024;2023-04-24T04:45:18;8.10;;;6.30;;
30888;SDS011;51092;50.874;7.024;2023-04-24T04:46:21;6.95;;;5.82;;
30888;SDS011;51092;50.874;7.024;2023-04-24T04:47:26;9.65;;;6.32;;
30888;SDS011;51092;50.874;7.024;2023-04-24T04:48:32;8.85;;;6.90;;
30888;SDS011;51092;50.874;7.024;2023-04-24T04:49:34;7.75;;;6.70;;
30888;SDS011;51092;50.874;7.024;2023-04-24T04:50:37;8.07;;;6.22;;
30888;SDS011;51092;50.874;7.024;2023-04-24T04:51:39;7.82;;;6.32;;
30888;SDS011;51092;50.874;7.024;2023-04-24T04:52:41;7.35;;;6.63;;
30888;SDS011;51092;50.874;7.024;2023-04-24T04:53:42;10.20;;;6.43;;
30888;SDS011;51092;50.874;7.024;2023-04-24T04:54:45;9.25;;;6.65;;
30888;SDS011;51092;50.874;7.024;2023-04-24T04:55:47;8.85;;;6.53;;
30888;SDS011;51092;50.874;7.024;2023-04-24T04:56:49;7.30;;;6.00;;
30888;SDS011;51092;50.874;7.024;2023-04-24T04:57:51;8.38;;;6.07;;
30888;SDS011;51092;50.874;7.024;2023-04-24T04:58:53;9.38;;;6.97;;
30888;SDS011;51092;50.874;7.024;2023-04-24T04:59:55;9.90;;;6.68;;
30888;SDS011;51092;50.874;7.024;2023-04-24T05:00:59;8.50;;;6.57;;
30888;SDS011;51092;50.874;7.024;2023-04-24T05:02:00;9.75;;;6.72;;
30888;SDS011;51092;50.874;7.024;2023-04-24T05:03:03;12.18;;;6.90;;
30888;SDS011;51092;50.874;7.024;2023-04-24T05:04:04;7.35;;;6.15;;
30888;SDS011;51092;50.874;7.024;2023-04-24T05:05:07;7.88;;;6.50;;
30888;SDS011;51092;50.874;7.024;2023-04-24T05:06:09;9.93;;;7.35;;
30888;SDS011;51092;50.874;7.024;2023-04-24T05:07:12;7.88;;;6.47;;
30888;SDS011;51092;50.874;7.024;2023-04-24T05:08:13;8.02;;;7.20;;
30888;SDS011;51092;50.874;7.024;2023-04-24T05:09:16;11.43;;;7.05;;
30888;SDS011;51092;50.874;7.024;2023-04-24T05:10:17;11.68;;;6.50;;
30888;SDS011;51092;50.874;7.024;2023-04-24T05:11:21;10.07;;;6.95;;
30888;SDS011;51092;50.874;7.024;2023-04-24T05:12:22;9.57;;;7.00;;
30888;SDS011;51092;50.874;7.024;2023-04-24T05:13:25;9.10;;;6.55;;
30888;SDS011;51092;50.874;7.024;2023-04-24T05:14:26;11.40;;;6.97;;
30888;SDS011;51092;50.874;7.024;2023-04-24T05:15:29;8.80;;;6.57;;
30888;SDS011;51092;50.874;7.024;2023-04-24T05:16:32;7.15;;;6.45;;
30888;SDS011;51092;50.874;7.024;2023-04-24T05:17:35;11.48;;;7.15;;
30888;SDS011;51092;50.874;7.024;2023-04-24T05:18:36;8.98;;;7.63;;
30888;SDS011;51092;50.874;7.024;2023-04-24T05:19:39;9.45;;;7.18;;
30888;SDS011;51092;50.874;7.024;2023-04-24T05:20:40;8.52;;;7.50;;
30888;SDS011;51092;50.874;7.024;2023-04-24T05:21:44;8.90;;;8.00;;
30888;SDS011;51092;50.874;7.024;2023-04-24T05:22:47;8.38;;;7.15;;
30888;SDS011;51092;50.874;7.024;2023-04-24T05:23:48;7.53;;;6.75;;
30888;SDS011;51092;50.874;7.024;2023-04-24T05:24:51;10.98;;;7.07;;
30888;SDS011;51092;50.874;7.024;2023-04-24T05:25:52;8.63;;;7.22;;
30888;SDS011;51092;50.874;7.024;2023-04-24T05:26:55;8.48;;;6.50;;
30888;SDS011;51092;50.874;7.024;2023-04-24T05:27:57;9.13;;;6.95;;
30888;SDS011;51092;50.874;7.024;2023-04-24T05:29:00;9.27;;;6.53;;
30888;SDS011;51092;50.874;7.024;2023-04-24T05:30:02;8.13;;;6.68;;
30888;SDS011;51092;50.874;7.024;2023-04-24T05:31:05;9.13;;;6.18;;
30888;SDS011;51092;50.874;7.024;2023-04-24T05:32:08;8.68;;;7.00;;
30888;SDS011;51092;50.874;7.024;2023-04-24T05:33:10;9.27;;;6.90;;
30888;SDS011;51092;50.874;7.024;2023-04-24T05:34:12;14.73;;;6.93;;
30888;SDS011;51092;50.874;7.024;2023-04-24T05:35:15;9.82;;;6.68;;
30888;SDS011;51092;50.874;7.024;2023-04-24T05:36:16;11.82;;;7.95;;
30888;SDS011;51092;50.874;7.024;2023-04-24T05:37:19;12.13;;;7.53;;
30888;SDS011;51092;50.874;7.024;2023-04-24T05:38:20;7.82;;;7.05;;
30888;SDS011;51092;50.874;7.024;2023-04-24T05:39:22;7.00;;;6.30;;
30888;SDS011;51092;50.874;7.024;2023-04-24T05:40:25;11.10;;;6.88;;
30888;SDS011;51092;50.874;7.024;2023-04-24T05:41:28;8.05;;;6.72;;
30888;SDS011;51092;50.874;7.024;2023-04-24T05:42:30;9.07;;;6.72;;
30888;SDS011;51092;50.874;7.024;2023-04-24T05:43:32;9.43;;;7.43;;
30888;SDS011;51092;50.874;7.024;2023-04-24T05:44:34;6.82;;;5.88;;
30888;SDS011;51092;50.874;7.024;2023-04-24T05:45:35;8.80;;;7.20;;
30888;SDS011;51092;50.874;7.024;2023-04-24T05:46:38;9.50;;;7.25;;
30888;SDS011;51092;50.874;7.024;2023-04-24T05:47:41;8.52;;;6.47;;
30888;SDS011;51092;50.874;7.024;2023-04-24T05:48:44;8.88;;;6.95;;
30888;SDS011;51092;50.874;7.024;2023-04-24T05:49:46;9.82;;;6.78;;
30888;SDS011;51092;50.874;7.024;2023-04-24T05:50:48;7.88;;;6.10;;
30888;SDS011;51092;50.874;7.024;2023-04-24T05:51:50;10.20;;;8.30;;
30888;SDS011;51092;50.874;7.024;2023-04-24T05:52:52;8.75;;;6.40;;
30888;SDS011;51092;50.874;7.024;2023-04-24T05:53:54;9.27;;;7.25;;
30888;SDS011;51092;50.874;7.024;2023-04-24T05:54:56;8.82;;;6.72;;
30888;SDS011;51092;50.874;7.024;2023-04-24T05:55:58;9.77;;;6.53;;
30888;SDS011;51092;50.874;7.024;2023-04-24T05:57:00;10.00;;;6.28;;
30888;SDS011;51092;50.874;7.024;2023-04-24T05:58:05;10.90;;;6.60;;
30888;SDS011;51092;50.874;7.024;2023-04-24T05:59:07;8.90;;;6.90;;
30888;SDS011;51092;50.874;7.024;2023-04-24T06:00:09;8.35;;;6.38;;
30888;SDS011;51092;50.874;7.024;2023-04-24T06:01:13;8.98;;;6.53;;
30888;SDS011;51092;50.874;7.024;2023-04-24T06:02:15;8.80;;;6.70;;
30888;SDS011;51092;50.874;7.024;2023-04-24T06:03:19;7.25;;;6.20;;
30888;SDS011;51092;50.874;7.024;2023-04-24T06:04:20;8.50;;;7.00;;
30888;SDS011;51092;50.874;7.024;2023-04-24T06:05:23;10.75;;;7.03;;
30888;SDS011;51092;50.874;7.024;2023-04-24T06:06:24;9.57;;;6.88;;
30888;SDS011;51092;50.874;7.024;2023-04-24T06:07:27;7.45;;;6.57;;
30888;SDS011;51092;50.874;7.024;2023-04-24T06:08:29;8.40;;;7.38;;
30888;SDS011;51092;50.874;7.024;2023-04-24T06:09:31;8.77;;;6.40;;
30888;SDS011;51092;50.874;7.024;2023-04-24T06:10:34;9.65;;;7.32;;
30888;SDS011;51092;50.874;7.024;2023-04-24T06:11:35;8.23;;;6.40;;
30888;SDS011;51092;50.874;7.024;2023-04-24T06:12:38;8.73;;;6.10;;
30888;SDS011;51092;50.874;7.024;2023-04-24T06:13:39;8.27;;;6.60;;
30888;SDS011;51092;50.874;7.024;2023-04-24T06:14:42;9.23;;;7.07;;
30888;SDS011;51092;50.874;7.024;2023-04-24T06:15:43;9.60;;;7.68;;